Meteo Giornale » Osservazioni meteo Stati Uniti (USA) » Alexandria Chandler Fld
ore: 00:53 - Osservazioni Meteo Alexandria Chandler Fld
Lat. 45° 52' N Lon. 95° 23' W Alt. 434 metri s.l.m.
18 °C
Sereno
Temp. 24 Ore
18 °C
30 °C
Sud-Ovest
13 Km/h
Dew point 13 °C
Umidità 72 %
Visibilità 10 Km
Il sole sorge alle ore 06:42
Il sole tramonta alle ore 20:00
| Data e Ora | Cielo e Fenomeni | T °C | DP °C | Um. % | Pres. hPa | Vis. km | Vento km/h | |
|---|---|---|---|---|---|---|---|---|
| Oggi h: 00:53 | Sereno | 18 | 13 | 72 | 1014 | 10 | SO 13 | |
| Ieri h: 23:53 | Sereno | 18 | 13 | 72 | 1014 | 10 | SO 13 | |
| Ieri h: 22:53 | Sereno | 18 | 14 | 77 | 1014 | 10 | S/SO 11.1 | |
| Ieri h: 21:53 | Sereno | 19 | 14 | 72 | 1014 | 10 | SO 11.1 | |
| Ieri h: 20:53 | Sereno | 22 | 14 | 60 | 1013 | 10 | N 0 | |
| Ieri h: 19:53 | Sereno | 23 | 13 | 53 | 1013 | 10 | SO 11.1 | |
| Ieri h: 18:53 | Sereno | 27 | 13 | 42 | 1013 | 10 | SO 13 | |
| Ieri h: 17:53 | Sereno | 29 | 11 | 32 | 1013 | 10 | SO 14.8 | |
| Ieri h: 16:53 | Sereno | 29 | 11 | 32 | 1013 | 10 | O/NO 13 | |
| Ieri h: 15:53 | Sereno | 30 | 10 | 28 | 1013 | 10 | O/NO 13 | |
| Ieri h: 14:53 | Sereno | 29 | 9 | 28 | 1013 | 10 | O/NO 16.7 | |
| Ieri h: 13:53 | Sereno | 28 | 12 | 37 | 1012 | 10 | N/NO 18.5 | |
| Ieri h: 12:53 | Sereno | 27 | 12 | 39 | 1013 | 10 | O/NO 13 | |
| Ieri h: 11:53 | Sereno | 26 | 12 | 41 | 1013 | 10 | O/NO 20.3 | |
| Ieri h: 10:53 | Sereno | 23 | 16 | 64 | 1013 | 10 | O/NO 11.1 | |
| Ieri h: 09:53 | Sereno | 22 | 17 | 73 | 1012 | 10 | O/NO 18.5 | |
| Ieri h: 08:53 | Sereno | 20 | 17 | 82 | 1012 | 10 | N/NO 18.5 | |
| Ieri h: 08:36 | Poco Nuvoloso | 19 | 17 | 88 | 1011 | 10 | N/NO 16.7 | |
| Ieri h: 08:13 | Molto Nuvoloso | 19 | 17 | 88 | 1011 | 10 | NO 22.2 | |
| Ieri h: 07:53 | Poco Nuvoloso | 19 | 17 | 88 | 1011 | 10 | NO 25.9 | |
| Ieri h: 06:53 | Poco Nuvoloso | 20 | 19 | 93 | 1010 | 13 | O/NO 18.5 | |
| Ieri h: 06:44 | Nuvoloso | 20 | 19 | 93 | 1009 | 13 | O/NO 18.5 | |
| Ieri h: 06:28 | Molto Nuvoloso | 21 | 19 | 88 | 1009 | 13 | O/NO 18.5 | |
| Ieri h: 05:53 | Foschia | 22 | 21 | 94 | 1009 | 10 | O/NO 25.9 | |
| Ieri h: 05:48 | Nuvoloso | 22 | 21 | 94 | 1008 | 11 | O/NO 22.2 | |
| Ieri h: 04:53 | Sereno | 22 | 21 | 94 | 1008 | 11 | O 11.1 | |
| Ieri h: 04:24 | Nuvoloso | 22 | 22 | 100 | 1008 | 11 | O 13 | |
| Ieri h: 03:53 | Coperto | 23 | 22 | 94 | 1008 | 13 | O/NO 18.5 | |
| Ieri h: 03:40 | Coperto | 23 | 22 | 94 | 1007 | 13 | O 7.4 | |
| Ieri h: 03:03 | Molto Nuvoloso | 22 | 21 | 94 | 1008 | 11 | O/SO 11.1 | |
| Ieri h: 02:53 | Foschia | 21 | 20 | 94 | 1008 | 8 | O/SO 9.3 | |
| Ieri h: 01:53 | Sereno | 21 | 21 | 100 | 1007 | 11 | S/SE 7.4 | |



